createdAt,value
2023-06-25T00:00:29.201Z,17.46
2023-06-25T00:01:02.130Z,17.40
2023-06-25T00:01:34.144Z,17.39
2023-06-25T00:02:06.541Z,17.38
2023-06-25T00:02:38.525Z,17.39
2023-06-25T00:03:10.667Z,17.41
2023-06-25T00:03:42.782Z,17.35
2023-06-25T00:04:14.973Z,17.34
2023-06-25T00:04:46.878Z,17.35
2023-06-25T00:05:18.867Z,17.33
2023-06-25T00:05:51.099Z,17.33
2023-06-25T00:06:23.373Z,17.36
2023-06-25T00:06:55.472Z,17.37
2023-06-25T00:07:27.500Z,17.34
2023-06-25T00:07:59.546Z,17.32
2023-06-25T00:08:31.443Z,17.31
2023-06-25T00:09:04.196Z,17.34
2023-06-25T00:09:36.156Z,17.34
2023-06-25T00:10:09.128Z,17.24
2023-06-25T00:10:41.312Z,17.22
2023-06-25T00:11:13.472Z,17.21
2023-06-25T00:11:45.411Z,17.23
2023-06-25T00:12:17.354Z,17.23
2023-06-25T00:12:49.322Z,17.20
2023-06-25T00:13:21.236Z,17.23
2023-06-25T00:13:54.980Z,17.19
2023-06-25T00:14:26.904Z,17.16
2023-06-25T00:14:58.850Z,17.18
2023-06-25T00:15:30.775Z,17.17
2023-06-25T00:16:02.716Z,17.12
2023-06-25T00:16:34.716Z,17.11
2023-06-25T00:17:06.833Z,17.09
2023-06-25T00:17:40.187Z,17.10
2023-06-25T00:18:12.142Z,17.12
2023-06-25T00:18:43.996Z,17.11
2023-06-25T00:19:18.602Z,17.14
2023-06-25T00:19:50.517Z,17.07
2023-06-25T00:20:25.237Z,17.12
2023-06-25T00:20:57.172Z,17.11
2023-06-25T00:21:29.584Z,17.06
2023-06-25T00:22:01.793Z,17.08
2023-06-25T00:22:33.765Z,17.05
2023-06-25T00:23:07.888Z,17.02
2023-06-25T00:23:40.352Z,17.07
2023-06-25T00:24:12.573Z,17.05
2023-06-25T00:24:44.499Z,17.04
2023-06-25T00:25:17.662Z,17.00
2023-06-25T00:25:49.572Z,16.94
2023-06-25T00:26:21.492Z,16.96
2023-06-25T00:26:53.386Z,17.01
2023-06-25T00:27:25.272Z,17.02
2023-06-25T00:27:59.286Z,17.01
2023-06-25T00:28:31.239Z,17.03
2023-06-25T00:29:04.525Z,17.02
2023-06-25T00:29:36.589Z,17.03
2023-06-25T00:30:09.079Z,17.02
2023-06-25T00:30:41.013Z,17.01
2023-06-25T00:31:16.252Z,16.97
2023-06-25T00:31:48.177Z,16.92
2023-06-25T00:32:20.289Z,16.93
2023-06-25T00:32:55.911Z,16.96
2023-06-25T00:33:28.133Z,16.96
2023-06-25T00:34:00.039Z,17.01
2023-06-25T00:34:31.951Z,16.93
2023-06-25T00:35:04.248Z,16.96
2023-06-25T00:35:51.394Z,16.92
2023-06-25T00:36:23.796Z,16.93
2023-06-25T00:36:55.752Z,16.92
2023-06-25T00:37:27.638Z,16.89
2023-06-25T00:38:02.624Z,16.92
2023-06-25T00:38:40.102Z,16.86
2023-06-25T00:39:12.769Z,16.86
2023-06-25T00:39:48.475Z,16.87
2023-06-25T00:40:20.449Z,16.84
2023-06-25T00:40:52.566Z,16.81
2023-06-25T00:41:28.223Z,16.81
2023-06-25T00:42:02.312Z,16.83
2023-06-25T00:42:42.541Z,16.89
2023-06-25T00:43:17.281Z,16.88
2023-06-25T00:43:49.195Z,16.86
2023-06-25T00:44:21.224Z,16.90
2023-06-25T00:44:53.219Z,16.87
2023-06-25T00:45:28.471Z,16.87
2023-06-25T00:46:01.406Z,16.87
2023-06-25T00:46:33.611Z,16.88
2023-06-25T00:47:05.669Z,16.82
2023-06-25T00:47:39.185Z,16.81
2023-06-25T00:48:11.172Z,16.81
2023-06-25T00:48:47.852Z,16.81
2023-06-25T00:49:20.163Z,16.82
2023-06-25T00:49:52.162Z,16.80
2023-06-25T00:50:24.864Z,16.72
2023-06-25T00:51:02.421Z,16.77
2023-06-25T00:51:38.351Z,16.77
2023-06-25T00:52:12.868Z,16.78
2023-06-25T00:52:44.887Z,16.80
2023-06-25T00:53:17.674Z,16.77
2023-06-25T00:53:49.538Z,16.77
2023-06-25T00:54:21.841Z,16.79
2023-06-25T00:54:53.717Z,16.77
2023-06-25T00:55:26.808Z,16.76
2023-06-25T00:55:58.773Z,16.75
2023-06-25T00:56:30.807Z,16.76
2023-06-25T00:57:05.265Z,16.70
2023-06-25T00:57:37.271Z,16.76
2023-06-25T00:58:09.271Z,16.77
2023-06-25T00:58:42.556Z,16.74
2023-06-25T00:59:14.840Z,16.78
2023-06-25T00:59:49.467Z,16.72
2023-06-25T01:00:21.461Z,16.71
2023-06-25T01:00:58.079Z,16.69
2023-06-25T01:01:46.460Z,16.69
2023-06-25T01:02:45.626Z,16.61
2023-06-25T01:03:29.951Z,16.63
2023-06-25T01:04:11.147Z,16.68
2023-06-25T01:04:54.489Z,16.69
2023-06-25T01:05:32.726Z,16.65
2023-06-25T01:06:30.494Z,16.65
2023-06-25T01:07:12.269Z,16.59
2023-06-25T01:07:46.403Z,16.64
2023-06-25T01:08:18.900Z,16.64
2023-06-25T01:08:52.309Z,16.61
2023-06-25T01:09:26.626Z,16.61
2023-06-25T01:09:59.144Z,16.63
2023-06-25T01:10:31.123Z,16.64
2023-06-25T01:11:04.515Z,16.67
2023-06-25T01:11:38.819Z,16.56
2023-06-25T01:12:10.697Z,16.58
2023-06-25T01:12:45.654Z,16.63
2023-06-25T01:13:17.538Z,16.62
2023-06-25T01:13:49.611Z,16.60
2023-06-25T01:14:23.165Z,16.64
2023-06-25T01:14:56.033Z,16.64
2023-06-25T01:15:27.961Z,16.64
2023-06-25T01:15:59.858Z,16.62
2023-06-25T01:16:32.464Z,16.59
2023-06-25T01:17:06.752Z,16.62
2023-06-25T01:17:43.251Z,16.58
2023-06-25T01:18:15.934Z,16.66
2023-06-25T01:19:02.639Z,16.68
2023-06-25T01:19:36.564Z,16.69
2023-06-25T01:20:12.998Z,16.69
2023-06-25T01:20:45.228Z,16.70
2023-06-25T01:21:19.849Z,16.72
2023-06-25T01:21:53.383Z,16.67
2023-06-25T01:22:33.057Z,16.65
2023-06-25T01:23:05.135Z,16.65
2023-06-25T01:23:38.011Z,16.62
2023-06-25T01:24:10.209Z,16.64
2023-06-25T01:24:45.889Z,16.61
2023-06-25T01:25:18.704Z,16.60
2023-06-25T01:25:51.148Z,16.60
2023-06-25T01:26:23.138Z,16.59
2023-06-25T01:27:00.949Z,16.61
2023-06-25T01:27:35.327Z,16.62
2023-06-25T01:28:07.321Z,16.65
2023-06-25T01:28:39.908Z,16.62
2023-06-25T01:29:12.310Z,16.60
2023-06-25T01:29:45.346Z,16.57
2023-06-25T01:30:19.082Z,16.60
2023-06-25T01:30:53.412Z,16.59
2023-06-25T01:31:32.924Z,16.55
2023-06-25T01:32:08.293Z,16.59
2023-06-25T01:32:45.615Z,16.54
2023-06-25T01:33:20.444Z,16.55
2023-06-25T01:33:52.694Z,16.58
2023-06-25T01:34:25.001Z,16.52
2023-06-25T01:34:57.003Z,16.52
2023-06-25T01:35:28.954Z,16.49
2023-06-25T01:36:00.837Z,16.48
2023-06-25T01:36:33.435Z,16.46
2023-06-25T01:37:07.515Z,16.50
2023-06-25T01:37:39.540Z,16.50
2023-06-25T01:38:11.836Z,16.48
2023-06-25T01:38:43.746Z,16.50
2023-06-25T01:39:17.393Z,16.50
2023-06-25T01:39:52.038Z,16.51
2023-06-25T01:40:24.220Z,16.44
2023-06-25T01:40:56.157Z,16.44
2023-06-25T01:41:28.235Z,16.45
2023-06-25T01:42:00.271Z,16.48
2023-06-25T01:42:32.151Z,16.43
2023-06-25T01:43:04.042Z,16.47
2023-06-25T01:43:35.994Z,16.48
2023-06-25T01:44:07.943Z,16.49
2023-06-25T01:44:40.428Z,16.49
2023-06-25T01:45:13.016Z,16.47
2023-06-25T01:45:44.966Z,16.48
2023-06-25T01:46:16.990Z,16.47
2023-06-25T01:46:48.936Z,16.44
2023-06-25T01:47:20.933Z,16.44
2023-06-25T01:47:52.941Z,16.45
2023-06-25T01:48:24.878Z,16.42
2023-06-25T01:48:56.808Z,16.40
2023-06-25T01:49:32.244Z,16.37
2023-06-25T01:50:06.202Z,16.37
2023-06-25T01:50:38.114Z,16.38
2023-06-25T01:51:10.063Z,16.38
2023-06-25T01:51:41.999Z,16.30
2023-06-25T01:52:14.381Z,16.32
2023-06-25T01:52:46.323Z,16.36
2023-06-25T01:53:19.229Z,16.35
2023-06-25T01:53:51.324Z,16.31
2023-06-25T01:54:23.271Z,16.30
2023-06-25T01:54:55.166Z,16.31
2023-06-25T01:55:27.142Z,16.29
2023-06-25T01:55:59.061Z,16.30
2023-06-25T01:56:30.988Z,16.29
2023-06-25T01:57:03.728Z,16.28
2023-06-25T01:57:35.674Z,16.27
2023-06-25T01:58:07.576Z,16.19
2023-06-25T01:58:39.503Z,16.18
2023-06-25T01:59:11.809Z,16.18
2023-06-25T01:59:43.749Z,16.17
2023-06-25T02:00:16.457Z,16.15
2023-06-25T02:00:48.948Z,16.11
2023-06-25T02:01:22.210Z,16.12
2023-06-25T02:01:55.032Z,16.13
2023-06-25T02:02:27.289Z,16.13
2023-06-25T02:02:59.335Z,16.13
2023-06-25T02:03:31.361Z,16.15
2023-06-25T02:04:03.377Z,16.17
2023-06-25T02:04:35.546Z,16.17
2023-06-25T02:05:07.771Z,16.20
2023-06-25T02:05:39.752Z,16.21
2023-06-25T02:06:11.706Z,16.22
2023-06-25T02:06:43.729Z,16.21
2023-06-25T02:07:15.703Z,16.20
2023-06-25T02:07:47.696Z,16.19
2023-06-25T02:08:19.975Z,16.20
2023-06-25T02:08:51.959Z,16.23
2023-06-25T02:09:23.984Z,16.21
2023-06-25T02:09:55.982Z,16.17
2023-06-25T02:10:29.971Z,16.22
2023-06-25T02:11:01.911Z,16.23
2023-06-25T02:11:33.824Z,16.22
2023-06-25T02:12:06.152Z,16.21
2023-06-25T02:12:38.081Z,16.22
2023-06-25T02:13:10.016Z,16.20
2023-06-25T02:13:42.087Z,16.21
2023-06-25T02:14:14.079Z,16.21
2023-06-25T02:14:45.967Z,16.21
2023-06-25T02:15:17.878Z,16.22
2023-06-25T02:15:49.860Z,16.23
2023-06-25T02:16:21.864Z,16.25
2023-06-25T02:16:53.825Z,16.29
2023-06-25T02:17:25.797Z,16.28
2023-06-25T02:17:58.000Z,16.28
2023-06-25T02:18:30.688Z,16.21
2023-06-25T02:19:02.598Z,16.13
2023-06-25T02:19:34.763Z,16.17
2023-06-25T02:20:07.643Z,16.18
2023-06-25T02:20:39.617Z,16.16
2023-06-25T02:21:11.831Z,16.17
2023-06-25T02:21:43.726Z,16.18
2023-06-25T02:22:15.670Z,16.15
2023-06-25T02:22:49.320Z,16.14
2023-06-25T02:23:21.315Z,16.12
2023-06-25T02:23:53.263Z,16.15
2023-06-25T02:24:25.358Z,16.18
2023-06-25T02:24:57.315Z,16.18
2023-06-25T02:25:29.315Z,16.18
2023-06-25T02:26:01.324Z,16.18
2023-06-25T02:26:33.374Z,16.15
2023-06-25T02:27:05.881Z,16.14
2023-06-25T02:27:37.823Z,16.15
2023-06-25T02:28:09.737Z,16.17
2023-06-25T02:28:41.824Z,16.14
2023-06-25T02:29:13.715Z,16.14
2023-06-25T02:29:45.635Z,16.15
2023-06-25T02:30:17.569Z,16.14
2023-06-25T02:30:49.527Z,16.13
2023-06-25T02:31:21.529Z,16.14
2023-06-25T02:31:53.652Z,16.14
2023-06-25T02:32:25.740Z,16.15
2023-06-25T02:32:57.777Z,16.11
2023-06-25T02:33:29.731Z,16.05
2023-06-25T02:34:01.635Z,16.08
2023-06-25T02:34:33.704Z,16.07
2023-06-25T02:35:05.940Z,16.08
2023-06-25T02:35:38.174Z,16.09
2023-06-25T02:36:10.237Z,16.03
2023-06-25T02:36:42.142Z,16.00
2023-06-25T02:37:16.355Z,15.97
2023-06-25T02:37:48.533Z,15.97
2023-06-25T02:38:20.478Z,15.96
2023-06-25T02:38:52.381Z,15.96
2023-06-25T02:39:24.407Z,15.98
2023-06-25T02:39:56.353Z,15.96
2023-06-25T02:40:31.206Z,15.97
2023-06-25T02:41:03.099Z,15.94
2023-06-25T02:41:35.085Z,15.95
2023-06-25T02:42:07.188Z,15.95
2023-06-25T02:42:39.659Z,15.92
2023-06-25T02:43:12.556Z,15.91
2023-06-25T02:43:44.487Z,15.92
2023-06-25T02:44:16.368Z,15.90
2023-06-25T02:44:48.286Z,15.92
2023-06-25T02:45:20.388Z,15.90
2023-06-25T02:45:52.376Z,15.91
2023-06-25T02:46:25.960Z,15.94
2023-06-25T02:46:57.904Z,15.98
2023-06-25T02:47:29.900Z,15.96
2023-06-25T02:48:01.933Z,15.97
2023-06-25T02:48:35.446Z,15.97
2023-06-25T02:49:07.570Z,15.97
2023-06-25T02:49:39.535Z,15.96
2023-06-25T02:50:11.540Z,15.99
2023-06-25T02:50:43.504Z,15.97
2023-06-25T02:51:15.429Z,15.96
2023-06-25T02:51:47.341Z,15.97
2023-06-25T02:52:19.312Z,15.99
2023-06-25T02:52:51.282Z,16.02
2023-06-25T02:53:23.237Z,15.98
2023-06-25T02:53:55.226Z,15.96
2023-06-25T02:54:27.248Z,15.94
2023-06-25T02:54:59.199Z,15.95
2023-06-25T02:55:31.249Z,15.95
2023-06-25T02:56:03.432Z,15.94
2023-06-25T02:56:35.329Z,15.91
2023-06-25T02:57:07.253Z,15.91
2023-06-25T02:57:39.223Z,15.90
2023-06-25T02:58:11.156Z,15.90
2023-06-25T02:58:43.049Z,15.88
2023-06-25T02:59:15.019Z,15.88
2023-06-25T02:59:46.965Z,15.90
2023-06-25T03:00:19.043Z,15.90
2023-06-25T03:00:51.260Z,15.90
2023-06-25T03:01:23.228Z,15.90
2023-06-25T03:01:55.194Z,15.89
2023-06-25T03:02:27.600Z,15.86
2023-06-25T03:02:59.707Z,15.89
2023-06-25T03:03:31.741Z,15.90
2023-06-25T03:04:03.763Z,15.88
2023-06-25T03:04:35.675Z,15.88
2023-06-25T03:05:07.944Z,15.90
2023-06-25T03:05:40.230Z,15.86
2023-06-25T03:06:12.556Z,15.87
2023-06-25T03:06:44.615Z,15.90
2023-06-25T03:07:16.542Z,15.89
2023-06-25T03:07:58.444Z,15.90
2023-06-25T03:08:30.409Z,15.89
2023-06-25T03:09:02.394Z,15.90
2023-06-25T03:09:34.338Z,15.88
2023-06-25T03:10:06.850Z,15.88
2023-06-25T03:10:41.541Z,15.88
2023-06-25T03:11:13.463Z,15.89
2023-06-25T03:11:45.412Z,15.90
2023-06-25T03:12:17.379Z,15.89
2023-06-25T03:12:49.357Z,15.86
2023-06-25T03:13:21.334Z,15.87
2023-06-25T03:13:53.367Z,15.88
2023-06-25T03:14:34.812Z,15.88
2023-06-25T03:15:08.128Z,15.85
2023-06-25T03:15:40.066Z,15.91
2023-06-25T03:16:11.997Z,15.93
2023-06-25T03:16:44.015Z,15.92
2023-06-25T03:17:16.060Z,15.93
2023-06-25T03:17:48.341Z,15.88
2023-06-25T03:18:20.278Z,15.90
2023-06-25T03:18:52.651Z,15.91
2023-06-25T03:19:24.618Z,15.91
2023-06-25T03:19:56.534Z,15.89
2023-06-25T03:20:28.477Z,15.90
2023-06-25T03:21:00.449Z,15.90
2023-06-25T03:21:32.379Z,15.89
2023-06-25T03:22:04.475Z,15.85
2023-06-25T03:22:36.580Z,15.91
2023-06-25T03:23:08.591Z,15.94
2023-06-25T03:23:40.740Z,15.93
2023-06-25T03:24:12.666Z,15.98
2023-06-25T03:24:44.595Z,16.02
2023-06-25T03:25:16.703Z,16.01
2023-06-25T03:25:48.611Z,16.02
2023-06-25T03:26:20.867Z,15.99
2023-06-25T03:26:52.883Z,15.97
2023-06-25T03:27:25.025Z,16.00
2023-06-25T03:27:57.020Z,15.96
2023-06-25T03:28:28.882Z,15.98
2023-06-25T03:29:00.845Z,15.97
2023-06-25T03:29:32.750Z,15.98
2023-06-25T03:30:07.995Z,15.97
2023-06-25T03:30:40.127Z,16.04
2023-06-25T03:31:12.152Z,16.06
2023-06-25T03:31:44.897Z,16.06
2023-06-25T03:32:16.911Z,16.07
2023-06-25T03:32:48.973Z,16.07
2023-06-25T03:33:21.078Z,16.08
2023-06-25T03:33:53.005Z,16.09
2023-06-25T03:34:24.928Z,16.09
2023-06-25T03:34:56.849Z,16.06
2023-06-25T03:35:28.761Z,16.08
2023-06-25T03:36:00.831Z,16.04
2023-06-25T03:36:33.143Z,16.07
2023-06-25T03:37:05.607Z,16.06
2023-06-25T03:37:37.559Z,16.09
2023-06-25T03:38:09.484Z,16.07
2023-06-25T03:38:41.444Z,16.12
2023-06-25T03:39:13.427Z,16.12
2023-06-25T03:39:45.410Z,16.12
2023-06-25T03:40:17.396Z,16.06
2023-06-25T03:40:49.490Z,16.04
2023-06-25T03:41:21.531Z,16.01
2023-06-25T03:41:53.404Z,16.07
2023-06-25T03:42:25.516Z,16.11
2023-06-25T03:42:57.462Z,16.13
2023-06-25T03:43:29.679Z,16.15
2023-06-25T03:44:01.774Z,16.16
2023-06-25T03:44:34.186Z,16.16
2023-06-25T03:45:06.924Z,16.11
2023-06-25T03:45:39.069Z,16.07
2023-06-25T03:46:11.176Z,15.95
2023-06-25T03:46:43.109Z,16.01
2023-06-25T03:47:15.131Z,16.05
2023-06-25T03:47:47.168Z,16.08
2023-06-25T03:48:19.300Z,16.10
2023-06-25T03:48:51.433Z,16.06
2023-06-25T03:49:23.431Z,15.98
2023-06-25T03:49:55.374Z,15.94
2023-06-25T03:50:27.435Z,15.87
2023-06-25T03:50:59.679Z,15.85
2023-06-25T03:51:31.605Z,15.84
2023-06-25T03:52:03.737Z,15.84
2023-06-25T03:52:35.730Z,15.86
2023-06-25T03:53:07.641Z,15.85
2023-06-25T03:53:40.044Z,15.83
2023-06-25T03:54:11.960Z,15.83
2023-06-25T03:54:43.934Z,15.81
2023-06-25T03:55:15.910Z,15.78
2023-06-25T03:55:47.887Z,15.76
2023-06-25T03:56:19.917Z,15.78
2023-06-25T03:56:51.867Z,15.79
2023-06-25T03:57:24.466Z,15.82
2023-06-25T03:57:58.969Z,15.83
2023-06-25T03:58:30.911Z,15.82
2023-06-25T03:59:03.104Z,15.82
2023-06-25T03:59:35.153Z,15.84
2023-06-25T04:00:07.788Z,15.88
2023-06-25T04:00:40.387Z,15.86
2023-06-25T04:01:12.333Z,15.85
2023-06-25T04:01:44.390Z,15.83
2023-06-25T04:02:16.535Z,15.83
2023-06-25T04:02:48.608Z,15.78
2023-06-25T04:03:20.580Z,15.79
2023-06-25T04:03:52.663Z,15.77
2023-06-25T04:04:24.762Z,15.77
2023-06-25T04:04:56.871Z,15.76
2023-06-25T04:05:28.895Z,15.74
2023-06-25T04:06:01.150Z,15.78
2023-06-25T04:06:33.138Z,15.78
2023-06-25T04:07:05.479Z,15.79
2023-06-25T04:07:37.456Z,15.81
2023-06-25T04:08:09.404Z,15.87
2023-06-25T04:08:41.700Z,15.86
2023-06-25T04:09:13.628Z,15.81
2023-06-25T04:09:45.544Z,15.83
2023-06-25T04:10:17.530Z,15.89
2023-06-25T04:10:49.592Z,15.88
2023-06-25T04:11:21.599Z,15.86
2023-06-25T04:11:53.543Z,15.92
2023-06-25T04:12:25.480Z,15.95
2023-06-25T04:12:57.581Z,15.91
2023-06-25T04:13:29.823Z,15.91
2023-06-25T04:14:01.928Z,15.88
2023-06-25T04:14:33.854Z,15.85
2023-06-25T04:15:06.304Z,15.89
2023-06-25T04:15:38.461Z,15.84
2023-06-25T04:16:10.636Z,15.86
2023-06-25T04:16:42.693Z,15.88
2023-06-25T04:17:14.617Z,15.91
2023-06-25T04:17:48.230Z,15.92
2023-06-25T04:18:20.380Z,15.94
2023-06-25T04:18:52.528Z,15.91
2023-06-25T04:19:24.443Z,15.92
2023-06-25T04:19:56.352Z,15.95
2023-06-25T04:20:29.251Z,15.93
2023-06-25T04:21:01.168Z,15.93
2023-06-25T04:21:33.089Z,15.87
2023-06-25T04:22:05.519Z,15.91
2023-06-25T04:22:37.461Z,15.96
2023-06-25T04:23:09.383Z,15.98
2023-06-25T04:23:41.313Z,16.03
2023-06-25T04:24:13.255Z,16.08
2023-06-25T04:24:45.211Z,16.10
2023-06-25T04:25:17.173Z,16.13
2023-06-25T04:25:49.399Z,16.13
2023-06-25T04:26:21.305Z,16.16
2023-06-25T04:26:53.320Z,16.14
2023-06-25T04:27:25.685Z,16.17
2023-06-25T04:27:57.717Z,16.22
2023-06-25T04:28:29.599Z,16.18
2023-06-25T04:29:01.569Z,16.22
2023-06-25T04:29:33.586Z,16.22
2023-06-25T04:30:06.208Z,16.24
2023-06-25T04:30:38.137Z,16.33
2023-06-25T04:31:10.043Z,16.37
2023-06-25T04:31:42.018Z,16.40
2023-06-25T04:32:14.107Z,16.41
2023-06-25T04:32:50.989Z,16.48
2023-06-25T04:33:23.048Z,16.54
2023-06-25T04:33:55.174Z,16.55
2023-06-25T04:34:27.325Z,16.58
2023-06-25T04:34:59.336Z,16.59
2023-06-25T04:35:32.511Z,16.62
2023-06-25T04:36:04.873Z,16.63
2023-06-25T04:36:36.795Z,16.70
2023-06-25T04:37:08.800Z,16.79
2023-06-25T04:37:40.785Z,16.85
2023-06-25T04:38:13.038Z,16.90
2023-06-25T04:38:44.989Z,16.97
2023-06-25T04:39:16.906Z,17.04
2023-06-25T04:39:48.821Z,17.06
2023-06-25T04:40:20.857Z,17.12
2023-06-25T04:40:52.902Z,17.14
2023-06-25T04:41:24.871Z,17.17
2023-06-25T04:41:56.920Z,17.26
2023-06-25T04:42:28.993Z,17.29
2023-06-25T04:43:00.930Z,17.33
2023-06-25T04:43:32.885Z,17.38
2023-06-25T04:44:05.203Z,17.45
2023-06-25T04:44:37.214Z,17.50
2023-06-25T04:45:09.742Z,17.49
2023-06-25T04:45:43.292Z,17.54
2023-06-25T04:46:15.304Z,17.65
2023-06-25T04:46:47.365Z,17.66
2023-06-25T04:47:19.463Z,17.68
2023-06-25T04:47:51.445Z,17.66
2023-06-25T04:48:23.388Z,17.60
2023-06-25T04:48:55.434Z,17.67
2023-06-25T04:49:27.530Z,17.67
2023-06-25T04:49:59.442Z,17.72
2023-06-25T04:50:31.358Z,17.78
2023-06-25T04:51:04.586Z,17.77
2023-06-25T04:51:36.619Z,17.83
2023-06-25T04:52:08.738Z,17.88
2023-06-25T04:52:40.792Z,17.87
2023-06-25T04:53:12.869Z,17.89
2023-06-25T04:53:44.896Z,18.01
2023-06-25T04:54:16.948Z,18.03
2023-06-25T04:54:49.307Z,17.99
2023-06-25T04:55:21.557Z,18.06
2023-06-25T04:55:53.535Z,18.07
2023-06-25T04:56:25.688Z,18.06
2023-06-25T04:56:57.709Z,18.03
2023-06-25T04:57:29.725Z,18.07
2023-06-25T04:58:01.724Z,18.08
2023-06-25T04:58:34.163Z,18.11
2023-06-25T04:59:06.194Z,18.16
2023-06-25T04:59:38.243Z,18.20
2023-06-25T05:00:10.830Z,18.26
2023-06-25T05:00:42.788Z,18.32
2023-06-25T05:01:14.798Z,18.32
2023-06-25T05:01:46.855Z,18.32
2023-06-25T05:02:18.940Z,18.37
2023-06-25T05:02:51.091Z,18.36
2023-06-25T05:03:23.230Z,18.40
2023-06-25T05:03:56.561Z,18.50
2023-06-25T05:04:28.714Z,18.48
2023-06-25T05:05:00.707Z,18.44
2023-06-25T05:05:33.741Z,18.50
2023-06-25T05:06:05.918Z,18.52
2023-06-25T05:06:37.831Z,18.50
2023-06-25T05:07:10.157Z,18.53
2023-06-25T05:07:42.169Z,18.46
2023-06-25T05:08:14.280Z,18.52
2023-06-25T05:08:46.415Z,18.53
2023-06-25T05:09:18.347Z,18.46
2023-06-25T05:09:50.343Z,18.46
2023-06-25T05:10:22.926Z,18.59
2023-06-25T05:10:55.007Z,18.68
2023-06-25T05:11:27.049Z,18.71
2023-06-25T05:11:59.116Z,18.68
2023-06-25T05:12:31.063Z,18.72
2023-06-25T05:13:05.318Z,18.73
2023-06-25T05:13:40.078Z,18.71
2023-06-25T05:14:13.305Z,18.70
2023-06-25T05:14:45.415Z,18.58
2023-06-25T05:15:17.953Z,18.63
2023-06-25T05:15:49.918Z,18.66
2023-06-25T05:16:21.972Z,18.68
2023-06-25T05:16:54.001Z,18.71
2023-06-25T05:17:27.566Z,18.78
2023-06-25T05:17:59.598Z,18.83
2023-06-25T05:18:31.898Z,18.79
2023-06-25T05:19:04.133Z,18.65
2023-06-25T05:19:36.240Z,18.74
2023-06-25T05:20:08.993Z,18.77
2023-06-25T05:20:41.147Z,18.86
2023-06-25T05:21:13.112Z,18.89
2023-06-25T05:21:45.194Z,18.88
2023-06-25T05:22:17.161Z,18.91
2023-06-25T05:22:49.094Z,18.97
2023-06-25T05:23:24.522Z,19.00
2023-06-25T05:24:04.892Z,18.95
2023-06-25T05:24:37.115Z,19.00
2023-06-25T05:25:09.855Z,18.94
2023-06-25T05:25:41.954Z,18.92
2023-06-25T05:26:13.905Z,18.92
2023-06-25T05:26:55.275Z,18.91
2023-06-25T05:27:27.270Z,18.98
2023-06-25T05:27:59.983Z,19.02
2023-06-25T05:28:32.807Z,19.07
2023-06-25T05:29:05.918Z,19.15
2023-06-25T05:29:37.882Z,19.19
2023-06-25T05:30:10.166Z,19.25
2023-06-25T05:30:42.204Z,19.20
2023-06-25T05:31:14.288Z,19.29
2023-06-25T05:31:47.572Z,19.25
2023-06-25T05:32:19.523Z,19.20
2023-06-25T05:32:51.488Z,19.29
2023-06-25T05:33:23.434Z,19.25
2023-06-25T05:33:55.592Z,19.31
2023-06-25T05:34:27.642Z,19.33
2023-06-25T05:34:59.602Z,19.35
2023-06-25T05:35:32.052Z,19.44
2023-06-25T05:36:04.624Z,19.44
2023-06-25T05:36:36.545Z,19.38
2023-06-25T05:37:09.117Z,19.39
2023-06-25T05:37:41.686Z,19.31
2023-06-25T05:38:13.678Z,19.43
2023-06-25T05:38:46.334Z,19.52
2023-06-25T05:39:18.310Z,19.43
2023-06-25T05:39:50.279Z,19.46
2023-06-25T05:40:22.240Z,19.29
2023-06-25T05:40:54.163Z,19.32
2023-06-25T05:41:26.081Z,19.41
2023-06-25T05:42:01.689Z,19.47
2023-06-25T05:42:33.663Z,19.51
2023-06-25T05:43:05.639Z,19.57
2023-06-25T05:43:37.621Z,19.57
2023-06-25T05:44:09.670Z,19.68
2023-06-25T05:44:41.618Z,19.72
2023-06-25T05:45:13.516Z,19.72
2023-06-25T05:45:45.553Z,19.60
2023-06-25T05:46:18.346Z,19.60
2023-06-25T05:46:50.368Z,19.65
2023-06-25T05:47:22.350Z,19.67
2023-06-25T05:47:54.340Z,19.73
2023-06-25T05:48:27.339Z,19.75
2023-06-25T05:48:59.252Z,19.90
2023-06-25T05:49:31.687Z,19.89
2023-06-25T05:50:04.394Z,19.83
2023-06-25T05:50:36.314Z,19.79
2023-06-25T05:51:08.486Z,19.64
2023-06-25T05:51:40.437Z,19.71
2023-06-25T05:52:12.392Z,19.75
2023-06-25T05:52:45.239Z,19.80
2023-06-25T05:53:17.230Z,19.92
2023-06-25T05:53:52.051Z,19.89
2023-06-25T05:54:24.034Z,19.91
2023-06-25T05:54:55.998Z,19.93
2023-06-25T05:55:31.619Z,19.94
2023-06-25T05:56:03.660Z,20.02
2023-06-25T05:56:35.663Z,20.01
2023-06-25T05:57:07.660Z,19.95
2023-06-25T05:57:39.647Z,20.02
2023-06-25T05:58:11.616Z,20.13
2023-06-25T05:58:43.785Z,20.15
2023-06-25T05:59:15.746Z,20.16
2023-06-25T05:59:47.660Z,20.12
2023-06-25T06:00:22.441Z,20.13
2023-06-25T06:00:54.519Z,20.15
2023-06-25T06:01:27.452Z,20.23
2023-06-25T06:01:59.498Z,20.32
2023-06-25T06:02:31.557Z,20.38
2023-06-25T06:03:03.572Z,20.42
2023-06-25T06:03:35.667Z,20.52
2023-06-25T06:04:07.676Z,20.57
2023-06-25T06:04:39.729Z,20.52
2023-06-25T06:05:11.638Z,20.53
2023-06-25T06:05:43.626Z,20.54
2023-06-25T06:06:15.540Z,20.52
2023-06-25T06:06:47.489Z,20.39
2023-06-25T06:07:19.517Z,20.33
2023-06-25T06:07:51.626Z,20.29
2023-06-25T06:08:23.862Z,20.38
2023-06-25T06:08:55.897Z,20.42
2023-06-25T06:09:28.249Z,20.24
2023-06-25T06:10:00.456Z,20.18
2023-06-25T06:10:32.701Z,20.33
2023-06-25T06:11:04.725Z,20.42
2023-06-25T06:11:36.687Z,20.45
2023-06-25T06:12:09.074Z,20.48
2023-06-25T06:12:40.996Z,20.51
2023-06-25T06:13:13.788Z,20.53
2023-06-25T06:13:46.007Z,20.56
2023-06-25T06:14:18.495Z,20.51
2023-06-25T06:14:52.834Z,20.59
2023-06-25T06:15:24.794Z,20.62
2023-06-25T06:15:56.780Z,20.62
2023-06-25T06:16:28.751Z,20.55
2023-06-25T06:17:00.764Z,20.55
2023-06-25T06:17:32.979Z,20.52
2023-06-25T06:18:04.934Z,20.59
2023-06-25T06:18:37.517Z,20.62
2023-06-25T06:19:12.910Z,20.60
2023-06-25T06:19:44.816Z,20.69
2023-06-25T06:20:16.705Z,20.61
2023-06-25T06:20:48.718Z,20.60
2023-06-25T06:21:20.675Z,20.62
2023-06-25T06:21:52.643Z,20.70
2023-06-25T06:22:24.596Z,20.74
2023-06-25T06:22:58.987Z,20.82
2023-06-25T06:23:30.937Z,20.80
2023-06-25T06:24:02.935Z,20.79
2023-06-25T06:24:34.879Z,20.84
2023-06-25T06:25:07.177Z,20.87
2023-06-25T06:25:39.402Z,20.91
2023-06-25T06:26:11.645Z,20.89
2023-06-25T06:26:43.663Z,20.94
2023-06-25T06:27:15.634Z,20.92
2023-06-25T06:27:47.950Z,20.88
2023-06-25T06:28:19.871Z,20.89
2023-06-25T06:28:51.827Z,20.80
2023-06-25T06:29:23.826Z,20.88
2023-06-25T06:29:55.770Z,20.88
2023-06-25T06:30:27.657Z,20.91
2023-06-25T06:30:59.614Z,20.90
2023-06-25T06:31:32.905Z,20.97
2023-06-25T06:32:05.518Z,21.03
2023-06-25T06:32:37.552Z,21.07
2023-06-25T06:33:09.575Z,21.17
2023-06-25T06:33:41.511Z,21.21
2023-06-25T06:34:13.472Z,21.16
2023-06-25T06:34:45.457Z,21.14
2023-06-25T06:35:17.422Z,21.17
2023-06-25T06:35:49.401Z,21.13
2023-06-25T06:36:21.375Z,21.17
2023-06-25T06:36:53.367Z,21.14
2023-06-25T06:37:25.295Z,20.93
2023-06-25T06:37:57.284Z,20.88
2023-06-25T06:38:29.327Z,20.95
2023-06-25T06:39:01.275Z,20.75
2023-06-25T06:39:34.200Z,20.71
2023-06-25T06:40:07.126Z,20.85
2023-06-25T06:40:39.093Z,21.05
2023-06-25T06:41:11.111Z,20.98
2023-06-25T06:41:43.005Z,20.85
2023-06-25T06:42:14.995Z,20.93
2023-06-25T06:42:46.957Z,21.08
2023-06-25T06:43:18.896Z,21.17
2023-06-25T06:43:50.855Z,21.06
2023-06-25T06:44:22.908Z,21.14
2023-06-25T06:44:54.931Z,20.96
2023-06-25T06:45:26.903Z,20.90
2023-06-25T06:45:58.844Z,21.00
2023-06-25T06:46:30.799Z,21.10
2023-06-25T06:47:02.763Z,21.18
2023-06-25T06:47:34.714Z,21.36
2023-06-25T06:48:06.913Z,21.34
2023-06-25T06:48:38.906Z,21.21
2023-06-25T06:49:11.898Z,21.38
2023-06-25T06:49:43.897Z,21.45
2023-06-25T06:50:15.943Z,21.54
2023-06-25T06:50:47.967Z,21.52
2023-06-25T06:51:19.930Z,21.48
2023-06-25T06:51:51.914Z,21.38
2023-06-25T06:52:26.624Z,21.40
2023-06-25T06:52:58.704Z,21.29
2023-06-25T06:53:30.670Z,21.28
2023-06-25T06:54:02.685Z,21.43
2023-06-25T06:54:34.621Z,21.31
2023-06-25T06:55:07.054Z,21.22
2023-06-25T06:55:39.165Z,21.15
2023-06-25T06:56:11.225Z,21.17
2023-06-25T06:56:43.152Z,21.19
2023-06-25T06:57:15.144Z,21.24
2023-06-25T06:57:48.327Z,21.30
2023-06-25T06:58:20.291Z,21.45
2023-06-25T06:58:52.281Z,21.62
2023-06-25T06:59:24.165Z,21.67
2023-06-25T06:59:56.114Z,21.77
2023-06-25T07:00:28.192Z,21.80